KPMU/PMU METAR and TAF weather

Enter ICAO airport designator
Station Type Date Time Source
KPMU METAR 2019/02/18 03:55 UTC NOAA

KPMU 180355Z AUTO 32003KT 10SM CLR 04/03 A3006 RMK AO2


Station Type Date Time Source
KPMU Decoded METAR 2019/02/18 03:55 UTC NOAA

Station name not available
Feb 17, 2019 - 10:55 PM EST / 2019.02.18 0355 UTC
Wind: from the NW (320 degrees) at 3 MPH (3 KT):0
Visibility: 10 mile(s):0
Sky conditions: clear
Temperature: 39 F (4 C)
Dew Point: 37 F (3 C)
Relative Humidity: 93%
Pressure (altimeter): 30.06 in. Hg (1017 hPa)
ob: KPMU 180355Z AUTO 32003KT 10SM CLR 04/03 A3006 RMK AO2
cycle: 4

Station Type Date Time Source
KPMU TAF UTC NOAA

Error!


Example: see airport list